UKR121 FXMM-FAGG
Flight info
| Callsign | UKR121 |
|---|---|
| Flight time | N/A |
| Altitude | 30000 |
| Route | EGTAP UQ8 XABDO UZ3 ESVAX UQ9 XALIN |
| Aircraft | IL76/H-SDFGHIM1RTUWXY/LB1 |
Departure
| Time | 2026-04-29 18:37 |
|---|---|
| Airport | Moshoeshoe I International Airport (FXMM) |
Arrival
| Time | N/A |
|---|---|
| Airport | George Airport (FAGG) |
| Time | Latitude | Longitude | Altitude | Speed | Heading |
|---|---|---|---|---|---|
| 2026-04-29 18:28 | -29.45508 | 27.55841 | 5392 ft | 0 kts | 178° |
| 2026-04-29 18:35 | -29.45554 | 27.55818 | 5390 ft | 18 kts | 236° |
| 2026-04-29 18:35 | -29.45540 | 27.55629 | 5385 ft | 20 kts | 282° |
| 2026-04-29 18:35 | -29.45498 | 27.55537 | 5380 ft | 12 kts | 326° |
| 2026-04-29 18:36 | -29.45316 | 27.55564 | 5382 ft | 48 kts | 13° |
| 2026-04-29 18:36 | -29.44831 | 27.55692 | 5377 ft | 94 kts | 15° |
| 2026-04-29 18:36 | -29.44062 | 27.55893 | 5355 ft | 127 kts | 7° |
| 2026-04-29 18:36 | -29.43189 | 27.56157 | 5523 ft | 128 kts | 12° |
| 2026-04-29 18:37 | -29.42301 | 27.56516 | 5594 ft | 140 kts | 16° |
| 2026-04-29 18:37 | -29.41369 | 27.56918 | 5770 ft | 150 kts | 15° |
| 2026-04-29 18:37 | -29.40351 | 27.57285 | 6082 ft | 151 kts | 7° |
| 2026-04-29 18:37 | -29.39355 | 27.57105 | 6204 ft | 160 kts | 316° |
| 2026-04-29 18:38 | -29.38772 | 27.55875 | 5979 ft | 194 kts | 272° |
| 2026-04-29 18:38 | -29.39187 | 27.54452 | 6430 ft | 206 kts | 225° |
| 2026-04-29 18:38 | -29.40528 | 27.53677 | 6759 ft | 226 kts | 199° |
| 2026-04-29 18:38 | -29.42165 | 27.53272 | 6854 ft | 257 kts | 193° |
| 2026-04-29 18:39 | -29.44044 | 27.52913 | 6977 ft | 285 kts | 191° |
| 2026-04-29 18:39 | -29.46042 | 27.52647 | 7489 ft | 295 kts | 187° |
| 2026-04-29 18:39 | -29.48183 | 27.52563 | 7429 ft | 328 kts | 183° |
| 2026-04-29 18:39 | -29.50616 | 27.52525 | 7317 ft | 355 kts | 181° |
| 2026-04-29 18:40 | -29.53132 | 27.52305 | 7406 ft | 373 kts | 192° |
| 2026-04-29 18:40 | -29.55558 | 27.51302 | 7979 ft | 371 kts | 207° |
| 2026-04-29 18:40 | -29.57781 | 27.50083 | 9614 ft | 340 kts | 209° |
| 2026-04-29 18:40 | -29.59794 | 27.49060 | 11131 ft | 311 kts | 206° |
| 2026-04-29 18:41 | -29.65099 | 27.46425 | 14062 ft | 257 kts | 217° |
| 2026-04-29 18:41 | -29.66659 | 27.45409 | 14550 ft | 257 kts | 219° |
| 2026-04-29 18:42 | -29.68217 | 27.44280 | 14572 ft | 276 kts | 221° |
| 2026-04-29 18:42 | -29.69762 | 27.43084 | 15383 ft | 261 kts | 224° |
| 2026-04-29 18:42 | -29.71232 | 27.41840 | 15723 ft | 265 kts | 226° |
| 2026-04-29 18:42 | -29.72685 | 27.40635 | 16443 ft | 263 kts | 217° |
| 2026-04-29 18:43 | -29.74403 | 27.39731 | 16644 ft | 276 kts | 216° |
| 2026-04-29 18:43 | -29.76167 | 27.38766 | 16895 ft | 287 kts | 215° |
| 2026-04-29 18:43 | -29.78022 | 27.37744 | 17146 ft | 297 kts | 215° |
| 2026-04-29 18:43 | -29.79909 | 27.36698 | 17390 ft | 306 kts | 215° |
| 2026-04-29 18:44 | -29.81853 | 27.35617 | 17636 ft | 316 kts | 215° |
| 2026-04-29 18:44 | -29.83879 | 27.34485 | 17889 ft | 325 kts | 215° |
| 2026-04-29 18:44 | -29.85936 | 27.33332 | 18156 ft | 334 kts | 215° |
| 2026-04-29 18:44 | -29.88053 | 27.32152 | 18416 ft | 343 kts | 215° |
| 2026-04-29 18:45 | -29.90227 | 27.30936 | 18676 ft | 351 kts | 215° |
| 2026-04-29 18:45 | -29.92425 | 27.29704 | 18929 ft | 358 kts | 215° |
| 2026-04-29 18:45 | -29.94699 | 27.28430 | 19192 ft | 365 kts | 215° |
| 2026-04-29 18:45 | -29.96995 | 27.27143 | 19449 ft | 372 kts | 215° |
| 2026-04-29 18:46 | -29.99342 | 27.25830 | 19698 ft | 378 kts | 215° |
| 2026-04-29 18:46 | -30.01739 | 27.24483 | 19957 ft | 384 kts | 216° |
| 2026-04-29 18:46 | -30.04155 | 27.23125 | 20213 ft | 389 kts | 216° |
| 2026-04-29 18:46 | -30.06600 | 27.21748 | 20459 ft | 394 kts | 216° |
| 2026-04-29 18:47 | -30.09095 | 27.20347 | 20711 ft | 399 kts | 216° |
| 2026-04-29 18:47 | -30.11592 | 27.18944 | 20966 ft | 403 kts | 216° |
| 2026-04-29 18:47 | -30.13491 | 27.17873 | 21141 ft | 406 kts | 215° |